createdAt,value
2022-08-05T00:00:15.949Z,19.75
2022-08-05T00:02:51.472Z,19.72
2022-08-05T00:06:02.959Z,19.65
2022-08-05T00:08:32.646Z,19.62
2022-08-05T00:10:53.477Z,19.57
2022-08-05T00:13:20.059Z,19.54
2022-08-05T00:15:55.698Z,19.47
2022-08-05T00:18:24.555Z,19.44
2022-08-05T00:20:52.431Z,19.39
2022-08-05T00:23:44.468Z,19.32
2022-08-05T00:26:10.451Z,19.39
2022-08-05T00:28:41.278Z,19.37
2022-08-05T00:31:08.841Z,19.33
2022-08-05T00:34:53.874Z,19.25
2022-08-05T00:37:10.848Z,19.28
2022-08-05T00:39:13.782Z,19.25
2022-08-05T00:41:51.847Z,19.20
2022-08-05T00:44:23.257Z,19.12
2022-08-05T00:47:01.562Z,19.08
2022-08-05T00:49:32.731Z,19.00
2022-08-05T00:52:11.166Z,18.98
2022-08-05T00:54:38.638Z,18.94
2022-08-05T00:57:05.418Z,18.94
2022-08-05T00:59:34.419Z,18.89
2022-08-05T01:02:01.405Z,18.81
2022-08-05T01:04:29.947Z,18.83
2022-08-05T01:06:56.998Z,18.76
2022-08-05T01:09:23.626Z,18.80
2022-08-05T01:12:03.136Z,18.83
2022-08-05T01:14:59.627Z,18.84
2022-08-05T01:17:53.923Z,18.79
2022-08-05T01:20:37.108Z,18.80
2022-08-05T01:23:34.766Z,18.78
2022-08-05T01:26:32.210Z,18.75
2022-08-05T01:29:05.413Z,18.70
2022-08-05T01:31:45.023Z,18.66
2022-08-05T01:34:19.839Z,18.61
2022-08-05T01:36:53.730Z,18.57
2022-08-05T01:39:45.801Z,18.57
2022-08-05T01:42:12.972Z,18.56
2022-08-05T01:44:45.650Z,18.52
2022-08-05T01:47:22.338Z,18.52
2022-08-05T01:50:01.426Z,18.49
2022-08-05T01:52:31.613Z,18.46
2022-08-05T01:55:05.603Z,18.41
2022-08-05T01:58:13.193Z,18.20
2022-08-05T02:00:29.887Z,18.16
2022-08-05T02:03:24.066Z,18.20
2022-08-05T02:05:53.711Z,18.26
2022-08-05T02:08:30.685Z,18.25
2022-08-05T02:11:05.196Z,18.25
2022-08-05T02:13:53.670Z,18.28
2022-08-05T02:16:28.194Z,18.29
2022-08-05T02:19:07.265Z,18.16
2022-08-05T02:21:43.265Z,18.23
2022-08-05T02:24:23.419Z,18.26
2022-08-05T02:26:59.148Z,18.22
2022-08-05T02:29:59.408Z,18.11
2022-08-05T02:32:23.656Z,18.04
2022-08-05T02:34:54.771Z,17.92
2022-08-05T02:37:23.710Z,17.95
2022-08-05T02:39:53.572Z,17.95
2022-08-05T02:42:27.573Z,17.78
2022-08-05T02:44:58.859Z,17.73
2022-08-05T02:48:06.917Z,17.74
2022-08-05T02:50:14.531Z,17.78
2022-08-05T02:52:46.859Z,17.73
2022-08-05T02:55:14.281Z,17.83
2022-08-05T02:58:11.546Z,17.85
2022-08-05T03:00:35.131Z,17.86
2022-08-05T03:03:10.157Z,17.83
2022-08-05T03:06:54.921Z,17.82
2022-08-05T03:08:29.585Z,17.79
2022-08-05T03:11:50.039Z,17.79
2022-08-05T03:13:51.499Z,17.75
2022-08-05T03:16:29.587Z,17.74
2022-08-05T03:18:58.151Z,17.74
2022-08-05T03:21:24.797Z,17.72
2022-08-05T03:23:56.869Z,17.66
2022-08-05T03:26:31.450Z,17.61
2022-08-05T03:28:59.413Z,17.62
2022-08-05T03:31:56.962Z,17.61
2022-08-05T03:34:13.259Z,17.58
2022-08-05T03:36:40.905Z,17.59
2022-08-05T03:39:13.152Z,17.58
2022-08-05T03:41:47.091Z,17.51
2022-08-05T03:44:19.916Z,17.47
2022-08-05T03:46:47.119Z,17.46
2022-08-05T03:49:15.468Z,17.42
2022-08-05T03:52:48.304Z,17.39
2022-08-05T03:55:07.105Z,17.31
2022-08-05T03:57:42.622Z,17.29
2022-08-05T04:00:15.540Z,17.21
2022-08-05T04:02:52.082Z,17.20
2022-08-05T04:05:30.405Z,17.31
2022-08-05T04:08:03.461Z,17.31
2022-08-05T04:10:37.964Z,17.32
2022-08-05T04:13:07.272Z,17.32
2022-08-05T04:15:36.258Z,17.33
2022-08-05T04:18:07.042Z,17.33
2022-08-05T04:20:34.563Z,17.33
2022-08-05T04:23:01.581Z,17.33
2022-08-05T04:25:57.555Z,17.34
2022-08-05T04:28:20.214Z,17.33
2022-08-05T04:31:01.420Z,17.23
2022-08-05T04:33:54.343Z,17.25
2022-08-05T04:36:49.462Z,17.28
2022-08-05T04:39:02.581Z,17.35
2022-08-05T04:41:36.694Z,17.34
2022-08-05T04:44:08.862Z,17.25
2022-08-05T04:46:35.697Z,17.30
2022-08-05T04:49:02.262Z,17.30
2022-08-05T04:51:30.575Z,17.36
2022-08-05T04:53:57.556Z,17.42
2022-08-05T04:56:35.070Z,17.53
2022-08-05T04:59:14.026Z,17.60
2022-08-05T05:02:07.178Z,17.72
2022-08-05T05:04:35.417Z,17.77
2022-08-05T05:07:05.163Z,17.78
2022-08-05T05:09:37.323Z,17.86
2022-08-05T05:12:06.238Z,17.91
2022-08-05T05:14:33.032Z,18.03
2022-08-05T05:17:03.267Z,18.11
2022-08-05T05:19:36.287Z,18.16
2022-08-05T05:22:22.683Z,18.25
2022-08-05T05:24:57.983Z,18.34
2022-08-05T05:27:44.794Z,18.46
2022-08-05T05:30:15.729Z,18.55
2022-08-05T05:32:56.765Z,18.64
2022-08-05T05:35:24.426Z,18.72
2022-08-05T05:38:00.230Z,18.77
2022-08-05T05:40:29.937Z,18.85
2022-08-05T05:42:57.488Z,18.93
2022-08-05T05:45:24.835Z,19.01
2022-08-05T05:48:06.907Z,19.15
2022-08-05T05:50:41.037Z,19.37
2022-08-05T05:53:22.446Z,19.35
2022-08-05T05:55:51.423Z,19.40
2022-08-05T05:58:31.989Z,19.44
2022-08-05T06:01:13.011Z,19.69
2022-08-05T06:04:01.780Z,19.88
2022-08-05T06:06:31.134Z,19.83
2022-08-05T06:08:58.646Z,19.89
2022-08-05T06:11:25.996Z,20.20
2022-08-05T06:13:54.171Z,20.38
2022-08-05T06:16:29.109Z,20.29
2022-08-05T06:19:01.057Z,20.30
2022-08-05T06:21:36.898Z,20.64
2022-08-05T06:24:05.911Z,20.82
2022-08-05T06:26:33.960Z,20.78
2022-08-05T06:29:03.658Z,20.86
2022-08-05T06:31:48.556Z,20.79
2022-08-05T06:34:17.405Z,20.81
2022-08-05T06:36:57.989Z,21.15
2022-08-05T06:39:27.076Z,21.05
2022-08-05T06:41:55.962Z,21.03
2022-08-05T06:44:27.139Z,21.10
2022-08-05T06:46:54.309Z,21.11
2022-08-05T06:49:50.565Z,21.20
2022-08-05T06:52:08.004Z,21.53
2022-08-05T06:54:54.672Z,21.71
2022-08-05T06:57:57.257Z,21.97
2022-08-05T07:00:09.817Z,22.06
2022-08-05T07:02:44.651Z,22.16
2022-08-05T07:05:15.414Z,22.06
2022-08-05T07:07:49.175Z,22.31
2022-08-05T07:10:16.394Z,22.32
2022-08-05T07:12:58.815Z,22.42
2022-08-05T07:16:00.912Z,22.29
2022-08-05T07:18:30.151Z,22.38
2022-08-05T07:20:57.420Z,22.59
2022-08-05T07:23:26.349Z,22.76
2022-08-05T07:25:57.006Z,22.70
2022-08-05T07:28:28.185Z,22.62
2022-08-05T07:31:06.344Z,22.59
2022-08-05T07:33:36.487Z,22.61
2022-08-05T07:36:20.849Z,23.05
2022-08-05T07:38:49.024Z,23.25
2022-08-05T07:42:14.526Z,23.41
2022-08-05T07:44:18.824Z,23.43
2022-08-05T07:46:48.572Z,23.41
2022-08-05T07:49:18.312Z,23.62
2022-08-05T07:51:53.010Z,23.55
2022-08-05T07:54:30.821Z,23.75
2022-08-05T07:57:17.627Z,23.63
2022-08-05T07:59:48.802Z,23.62
2022-08-05T08:02:17.602Z,23.67
2022-08-05T08:04:47.385Z,23.75
2022-08-05T08:07:15.014Z,23.88
2022-08-05T08:09:42.298Z,23.94
2022-08-05T08:12:27.419Z,24.07
2022-08-05T08:14:56.110Z,24.14
2022-08-05T08:17:23.693Z,24.21
2022-08-05T08:20:10.828Z,24.26
2022-08-05T08:22:37.304Z,24.25
2022-08-05T08:25:16.396Z,24.26
2022-08-05T08:27:47.405Z,24.37
2022-08-05T08:30:32.726Z,24.61
2022-08-05T08:33:08.698Z,24.90
2022-08-05T08:35:41.219Z,25.11
2022-08-05T08:38:35.574Z,25.28
2022-08-05T08:41:08.264Z,25.34
2022-08-05T08:45:20.312Z,25.53
2022-08-05T08:46:26.937Z,25.69
2022-08-05T08:49:06.386Z,25.80
2022-08-05T08:52:03.507Z,25.83
2022-08-05T08:54:30.620Z,25.97
2022-08-05T08:56:59.934Z,25.86
2022-08-05T08:59:27.736Z,26.04
2022-08-05T09:02:01.591Z,26.09
2022-08-05T09:04:30.513Z,26.17
2022-08-05T09:06:58.343Z,26.32
2022-08-05T09:09:32.511Z,26.41
2022-08-05T09:12:30.231Z,26.37
2022-08-05T09:14:56.346Z,26.34
2022-08-05T09:17:42.846Z,26.53
2022-08-05T09:20:36.758Z,26.43
2022-08-05T09:23:19.881Z,26.63
2022-08-05T09:26:02.044Z,26.65
2022-08-05T09:28:33.488Z,26.82
2022-08-05T09:32:39.368Z,27.06
2022-08-05T09:33:54.711Z,27.19
2022-08-05T09:36:21.906Z,27.16
2022-08-05T09:39:16.394Z,27.41
2022-08-05T09:42:03.784Z,27.46
2022-08-05T09:44:40.016Z,27.39
2022-08-05T09:47:17.552Z,27.43
2022-08-05T09:50:01.336Z,27.50
2022-08-05T09:52:34.295Z,27.70
2022-08-05T09:55:55.079Z,27.80
2022-08-05T09:57:54.572Z,27.91
2022-08-05T10:00:25.962Z,27.93
2022-08-05T10:02:58.670Z,28.00
2022-08-05T10:05:28.461Z,28.03
2022-08-05T10:08:35.319Z,28.36
2022-08-05T10:10:50.289Z,28.41
2022-08-05T10:13:48.047Z,28.68
2022-08-05T10:16:33.927Z,28.88
2022-08-05T10:19:08.599Z,29.01
2022-08-05T10:21:40.030Z,29.10
2022-08-05T10:24:10.657Z,29.08
2022-08-05T10:26:49.120Z,29.14
2022-08-05T10:29:23.527Z,29.17
2022-08-05T10:32:53.604Z,29.28
2022-08-05T10:34:55.433Z,29.29
2022-08-05T10:37:22.646Z,29.24
2022-08-05T10:39:59.417Z,29.16
2022-08-05T10:42:36.764Z,29.26
2022-08-05T10:45:20.818Z,29.44
2022-08-05T10:48:30.042Z,29.45
2022-08-05T10:51:21.444Z,29.64
2022-08-05T10:54:01.703Z,29.78
2022-08-05T10:56:45.218Z,29.95
2022-08-05T11:00:02.127Z,30.05
2022-08-05T11:02:14.562Z,30.08
2022-08-05T11:04:59.601Z,30.12
2022-08-05T11:07:33.327Z,30.16
2022-08-05T11:10:27.732Z,30.17
2022-08-05T11:12:57.771Z,30.27
2022-08-05T11:16:00.642Z,30.26
2022-08-05T11:18:27.271Z,30.33
2022-08-05T11:20:57.509Z,30.27
2022-08-05T11:24:03.383Z,30.38
2022-08-05T11:26:28.420Z,30.36
2022-08-05T11:29:05.179Z,30.49
2022-08-05T11:31:58.704Z,30.42
2022-08-05T11:34:37.695Z,30.57
2022-08-05T11:38:14.307Z,30.70
2022-08-05T11:40:00.479Z,30.84
2022-08-05T11:42:33.094Z,30.99
2022-08-05T11:45:23.132Z,31.08
2022-08-05T11:47:55.163Z,31.15
2022-08-05T11:50:22.629Z,31.15
2022-08-05T11:52:52.034Z,31.41
2022-08-05T11:55:21.195Z,31.52
2022-08-05T11:58:10.760Z,31.71
2022-08-05T12:00:38.310Z,31.88
2022-08-05T12:03:28.586Z,31.96
2022-08-05T12:06:01.580Z,32.03
2022-08-05T12:08:28.725Z,32.02
2022-08-05T12:11:04.119Z,32.11
2022-08-05T12:13:49.439Z,32.11
2022-08-05T12:16:19.253Z,32.10
2022-08-05T12:18:49.062Z,32.12
2022-08-05T12:21:29.574Z,32.18
2022-08-05T12:24:00.153Z,32.16
2022-08-05T12:26:33.160Z,32.16
2022-08-05T12:28:59.808Z,32.31
2022-08-05T12:31:43.703Z,32.20
2022-08-05T12:34:23.694Z,32.22
2022-08-05T12:36:53.684Z,32.19
2022-08-05T12:39:21.691Z,32.22
2022-08-05T12:41:50.392Z,32.25
2022-08-05T12:44:33.345Z,32.22
2022-08-05T12:47:01.624Z,32.38
2022-08-05T12:50:01.986Z,32.38
2022-08-05T12:52:30.401Z,32.35
2022-08-05T12:55:15.720Z,32.42
2022-08-05T12:58:38.717Z,32.53
2022-08-05T13:02:03.681Z,32.60
2022-08-05T13:03:18.178Z,32.64
2022-08-05T13:05:47.900Z,32.72
2022-08-05T13:08:18.545Z,32.90
2022-08-05T13:10:48.761Z,32.96
2022-08-05T13:14:05.927Z,32.99
2022-08-05T13:16:12.552Z,33.01
2022-08-05T13:18:51.697Z,32.95
2022-08-05T13:21:18.366Z,33.11
2022-08-05T13:23:50.751Z,33.17
2022-08-05T13:26:20.175Z,33.22
2022-08-05T13:28:49.477Z,33.37
2022-08-05T13:31:19.976Z,33.37
2022-08-05T13:34:24.325Z,33.52
2022-08-05T13:36:53.545Z,33.53
2022-08-05T13:39:24.477Z,33.50
2022-08-05T13:42:07.587Z,33.53
2022-08-05T13:44:45.553Z,33.47
2022-08-05T13:47:34.919Z,33.46
2022-08-05T13:50:04.340Z,33.48
2022-08-05T13:52:35.508Z,33.49
2022-08-05T13:55:07.986Z,33.47
2022-08-05T13:57:48.961Z,33.47
2022-08-05T14:00:27.077Z,33.54
2022-08-05T14:02:56.375Z,33.46
2022-08-05T14:05:48.352Z,33.48
2022-08-05T14:08:20.192Z,33.63
2022-08-05T14:10:53.974Z,33.82
2022-08-05T14:13:30.115Z,33.72
2022-08-05T14:16:08.067Z,33.78
2022-08-05T14:18:36.277Z,33.84
2022-08-05T14:22:07.480Z,33.85
2022-08-05T14:23:51.251Z,33.78
2022-08-05T14:26:35.466Z,33.58
2022-08-05T14:29:04.605Z,33.74
2022-08-05T14:32:02.164Z,33.71
2022-08-05T14:34:18.766Z,33.72
2022-08-05T14:36:50.477Z,33.62
2022-08-05T14:39:23.258Z,33.60
2022-08-05T14:42:15.953Z,33.68
2022-08-05T14:44:36.838Z,33.63
2022-08-05T14:47:03.755Z,33.83
2022-08-05T14:49:59.528Z,33.89
2022-08-05T14:52:36.351Z,33.90
2022-08-05T14:55:03.971Z,33.73
2022-08-05T14:57:34.073Z,33.65
2022-08-05T15:00:17.254Z,33.58
2022-08-05T15:02:47.243Z,33.72
2022-08-05T15:05:14.211Z,33.90
2022-08-05T15:08:12.076Z,33.82
2022-08-05T15:10:28.779Z,33.63
2022-08-05T15:13:00.964Z,33.64
2022-08-05T15:15:54.495Z,33.68
2022-08-05T15:18:17.240Z,33.74
2022-08-05T15:20:44.415Z,33.74
2022-08-05T15:23:13.245Z,33.76
2022-08-05T15:25:52.161Z,33.68
2022-08-05T15:28:27.439Z,33.57
2022-08-05T15:30:55.590Z,33.37
2022-08-05T15:34:19.405Z,33.28
2022-08-05T15:36:17.812Z,33.31
2022-08-05T15:38:58.298Z,33.16
2022-08-05T15:41:55.985Z,33.08
2022-08-05T15:44:24.981Z,32.97
2022-08-05T15:46:52.663Z,32.72
2022-08-05T15:49:27.475Z,32.67
2022-08-05T15:52:16.056Z,32.57
2022-08-05T15:54:43.726Z,32.42
2022-08-05T15:57:10.785Z,32.35
2022-08-05T15:59:38.270Z,32.28
2022-08-05T16:02:09.292Z,32.18
2022-08-05T16:04:41.181Z,32.08
2022-08-05T16:07:10.712Z,31.99
2022-08-05T16:09:37.555Z,31.97
2022-08-05T16:12:08.962Z,31.93
2022-08-05T16:14:35.636Z,32.06
2022-08-05T16:17:02.243Z,31.86
2022-08-05T16:20:04.443Z,31.76
2022-08-05T16:22:15.976Z,31.84
2022-08-05T16:24:51.959Z,31.75
2022-08-05T16:27:19.469Z,31.63
2022-08-05T16:30:08.300Z,31.53
2022-08-05T16:32:53.359Z,31.42
2022-08-05T16:35:27.942Z,31.38
2022-08-05T16:38:02.516Z,31.30
2022-08-05T16:40:42.022Z,31.26
2022-08-05T16:43:16.452Z,31.22
2022-08-05T16:46:07.488Z,31.17
2022-08-05T16:48:33.994Z,31.07
2022-08-05T16:51:02.111Z,31.02
2022-08-05T16:54:03.383Z,30.97
2022-08-05T16:56:17.642Z,30.91
2022-08-05T16:58:44.367Z,30.86
2022-08-05T17:01:11.284Z,30.78
2022-08-05T17:03:38.003Z,30.73
2022-08-05T17:06:05.905Z,30.66
2022-08-05T17:08:52.124Z,30.62
2022-08-05T17:11:23.309Z,30.53
2022-08-05T17:13:50.722Z,30.50
2022-08-05T17:16:32.703Z,30.47
2022-08-05T17:19:00.750Z,30.51
2022-08-05T17:21:35.976Z,30.56
2022-08-05T17:24:08.085Z,30.65
2022-08-05T17:26:53.298Z,30.62
2022-08-05T17:29:22.557Z,30.80
2022-08-05T17:31:59.520Z,30.61
2022-08-05T17:34:29.853Z,30.54
2022-08-05T17:37:00.019Z,30.41
2022-08-05T17:39:34.109Z,30.39
2022-08-05T17:42:17.603Z,30.38
2022-08-05T17:44:50.798Z,30.28
2022-08-05T17:47:22.074Z,30.20
2022-08-05T17:49:59.844Z,30.10
2022-08-05T17:52:32.237Z,30.11
2022-08-05T17:54:59.412Z,30.05
2022-08-05T17:57:27.650Z,29.92
2022-08-05T18:00:05.002Z,29.93
2022-08-05T18:02:34.236Z,29.72
2022-08-05T18:05:06.405Z,29.69
2022-08-05T18:07:41.331Z,29.70
2022-08-05T18:10:11.029Z,29.50
2022-08-05T18:12:38.463Z,29.34
2022-08-05T18:15:06.206Z,29.24
2022-08-05T18:18:01.504Z,29.10
2022-08-05T18:20:29.362Z,29.06
2022-08-05T18:23:00.704Z,29.02
2022-08-05T18:25:39.216Z,28.98
2022-08-05T18:28:06.992Z,28.98
2022-08-05T18:30:35.139Z,28.91
2022-08-05T18:33:06.312Z,28.85
2022-08-05T18:36:00.981Z,28.83
2022-08-05T18:38:26.497Z,28.84
2022-08-05T18:41:56.901Z,28.79
2022-08-05T18:43:43.073Z,28.86
2022-08-05T18:46:20.111Z,28.85
2022-08-05T18:48:51.965Z,28.81
2022-08-05T18:52:04.189Z,28.72
2022-08-05T18:54:23.363Z,28.67
2022-08-05T18:56:51.028Z,28.69
2022-08-05T18:59:42.776Z,28.72
2022-08-05T19:02:11.165Z,29.04
2022-08-05T19:05:01.326Z,29.04
2022-08-05T19:07:25.474Z,29.09
2022-08-05T19:09:57.249Z,29.09
2022-08-05T19:12:25.746Z,29.05
2022-08-05T19:15:00.916Z,29.10
2022-08-05T19:17:59.385Z,29.06
2022-08-05T19:20:16.407Z,29.15
2022-08-05T19:22:44.513Z,29.01
2022-08-05T19:25:11.315Z,29.00
2022-08-05T19:27:56.923Z,28.88
2022-08-05T19:30:23.711Z,28.75
2022-08-05T19:32:50.467Z,28.70
2022-08-05T19:35:17.178Z,28.72
2022-08-05T19:38:06.486Z,28.77
2022-08-05T19:40:34.837Z,28.75
2022-08-05T19:43:05.295Z,28.46
2022-08-05T19:45:33.270Z,28.53
2022-08-05T19:48:05.293Z,28.53
2022-08-05T19:50:32.315Z,28.42
2022-08-05T19:53:09.452Z,28.31
2022-08-05T19:56:15.704Z,28.19
2022-08-05T19:58:29.195Z,28.08
2022-08-05T20:00:56.492Z,28.09
2022-08-05T20:03:26.145Z,27.95
2022-08-05T20:05:56.659Z,27.85
2022-08-05T20:08:24.822Z,27.82
2022-08-05T20:10:52.417Z,28.04
2022-08-05T20:13:21.590Z,28.05
2022-08-05T20:16:06.392Z,27.93
2022-08-05T20:18:36.033Z,27.73
2022-08-05T20:21:06.814Z,27.63
2022-08-05T20:23:40.502Z,27.54
2022-08-05T20:26:24.831Z,27.39
2022-08-05T20:28:55.852Z,27.37
2022-08-05T20:31:36.818Z,27.25
2022-08-05T20:34:12.999Z,27.27
2022-08-05T20:36:43.568Z,27.22
2022-08-05T20:39:13.345Z,27.09
2022-08-05T20:41:43.342Z,26.90
2022-08-05T20:44:17.195Z,26.78
2022-08-05T20:46:47.312Z,26.71
2022-08-05T20:49:14.242Z,26.68
2022-08-05T20:51:45.101Z,26.66
2022-08-05T20:54:20.100Z,26.79
2022-08-05T20:56:46.763Z,27.03
2022-08-05T20:59:26.218Z,26.92
2022-08-05T21:01:57.163Z,26.84
2022-08-05T21:04:26.945Z,26.71
2022-08-05T21:06:54.626Z,26.62
2022-08-05T21:09:22.774Z,26.48
2022-08-05T21:12:07.293Z,26.49
2022-08-05T21:14:36.848Z,26.33
2022-08-05T21:17:05.198Z,26.28
2022-08-05T21:19:47.331Z,26.32
2022-08-05T21:22:18.424Z,26.34
2022-08-05T21:24:48.970Z,26.37
2022-08-05T21:27:18.451Z,26.39
2022-08-05T21:29:48.217Z,26.53
2022-08-05T21:32:17.199Z,26.37
2022-08-05T21:35:06.704Z,26.41
2022-08-05T21:37:33.391Z,26.53
2022-08-05T21:40:05.800Z,26.62
2022-08-05T21:42:44.179Z,26.62
2022-08-05T21:45:12.364Z,26.64
2022-08-05T21:47:56.526Z,26.49
2022-08-05T21:50:25.683Z,26.14
2022-08-05T21:52:52.387Z,26.12
2022-08-05T21:55:43.147Z,26.37
2022-08-05T21:58:10.457Z,26.54
2022-08-05T22:00:38.597Z,26.43
2022-08-05T22:03:09.895Z,26.41
2022-08-05T22:05:49.053Z,26.27
2022-08-05T22:08:22.429Z,26.24
2022-08-05T22:10:51.537Z,26.19
2022-08-05T22:14:34.342Z,26.18
2022-08-05T22:16:20.348Z,26.24
2022-08-05T22:18:53.617Z,26.17
2022-08-05T22:21:25.154Z,26.15
2022-08-05T22:24:09.084Z,26.20
2022-08-05T22:26:55.337Z,26.27
2022-08-05T22:29:26.697Z,26.17
2022-08-05T22:31:59.399Z,26.07
2022-08-05T22:34:30.025Z,26.09
2022-08-05T22:36:58.498Z,26.00
2022-08-05T22:39:32.592Z,26.07
2022-08-05T22:42:09.493Z,26.05
2022-08-05T22:44:40.029Z,26.05
2022-08-05T22:47:06.923Z,26.04
2022-08-05T22:50:18.033Z,25.96
2022-08-05T22:52:30.280Z,25.85
2022-08-05T22:54:59.578Z,25.80
2022-08-05T22:57:26.658Z,25.78
2022-08-05T22:59:54.242Z,25.86
2022-08-05T23:02:29.542Z,25.87
2022-08-05T23:05:02.144Z,25.85
2022-08-05T23:07:32.353Z,25.79
2022-08-05T23:10:02.054Z,25.76
2022-08-05T23:12:32.816Z,25.66
2022-08-05T23:15:03.451Z,25.63
2022-08-05T23:17:35.086Z,25.51
2022-08-05T23:20:16.604Z,25.40
2022-08-05T23:22:47.691Z,25.35
2022-08-05T23:25:52.345Z,25.30
2022-08-05T23:28:06.936Z,25.26
2022-08-05T23:30:40.633Z,25.16
2022-08-05T23:33:22.537Z,25.12
2022-08-05T23:35:55.900Z,25.09
2022-08-05T23:38:26.729Z,25.02
2022-08-05T23:40:53.631Z,24.98
2022-08-05T23:43:25.229Z,24.95
2022-08-05T23:46:21.163Z,24.90
2022-08-05T23:49:00.699Z,24.84
2022-08-05T23:51:53.444Z,24.72
2022-08-05T23:54:29.998Z,24.73
2022-08-05T23:57:03.675Z,24.64
